地図

経路データ

SID SEASON NUMBER BASIN SUBBASIN NAME ISO_TIME NATURE LAT LON WMO_WIND WMO_PRES WMO_AGENCY TRACK_TYPE DIST2LAND LANDFALL IFLAG USA_AGENCY USA_ATCF_ID USA_LAT USA_LON USA_RECORD USA_STATUS USA_WIND USA_PRES USA_SSHS USA_R34_NE USA_R34_SE USA_R34_SW USA_R34_NW USA_R50_NE USA_R50_SE USA_R50_SW USA_R50_NW USA_R64_NE USA_R64_SE USA_R64_SW USA_R64_NW USA_POCI USA_ROCI USA_RMW USA_EYE TOKYO_LAT TOKYO_LON TOKYO_GRADE TOKYO_WIND TOKYO_PRES TOKYO_R50_DIR TOKYO_R50_LONG TOKYO_R50_SHORT TOKYO_R30_DIR TOKYO_R30_LONG TOKYO_R30_SHORT TOKYO_LAND CMA_LAT CMA_LON CMA_CAT CMA_WIND CMA_PRES HKO_LAT HKO_LON HKO_CAT HKO_WIND HKO_PRES NEWDELHI_LAT NEWDELHI_LON NEWDELHI_GRADE NEWDELHI_WIND NEWDELHI_PRES NEWDELHI_CI NEWDELHI_DP NEWDELHI_POCI REUNION_LAT REUNION_LON REUNION_TYPE REUNION_WIND REUNION_PRES REUNION_TNUM REUNION_CI REUNION_RMW REUNION_R34_NE REUNION_R34_SE REUNION_R34_SW REUNION_R34_NW REUNION_R50_NE REUNION_R50_SE REUNION_R50_SW REUNION_R50_NW REUNION_R64_NE REUNION_R64_SE REUNION_R64_SW REUNION_R64_NW BOM_LAT BOM_LON BOM_TYPE BOM_WIND BOM_PRES BOM_TNUM BOM_CI BOM_RMW BOM_R34_NE BOM_R34_SE BOM_R34_SW BOM_R34_NW BOM_R50_NE BOM_R50_SE BOM_R50_SW BOM_R50_NW BOM_R64_NE BOM_R64_SE BOM_R64_SW BOM_R64_NW BOM_ROCI BOM_POCI BOM_EYE BOM_POS_METHOD BOM_PRES_METHOD NADI_LAT NADI_LON NADI_CAT NADI_WIND NADI_PRES WELLINGTON_LAT WELLINGTON_LON WELLINGTON_WIND WELLINGTON_PRES DS824_LAT DS824_LON DS824_STAGE DS824_WIND DS824_PRES TD9636_LAT TD9636_LON TD9636_STAGE TD9636_WIND TD9636_PRES TD9635_LAT TD9635_LON TD9635_WIND TD9635_PRES TD9635_ROCI NEUMANN_LAT NEUMANN_LON NEUMANN_CLASS NEUMANN_WIND NEUMANN_PRES MLC_LAT MLC_LON MLC_CLASS MLC_WIND MLC_PRES USA_GUST BOM_GUST BOM_GUST_PER REUNION_GUST REUNION_GUST_PER USA_SEAHGT USA_SEARAD_NE USA_SEARAD_SE USA_SEARAD_SW USA_SEARAD_NW STORM_SPEED STORM_DIR
1932288N11074 1932 64 NI AS NOT_NAMED 1932-10-14 00:00:00 TS 10.9000 74.1000 main 171 164 _________O____ -1 10.9000 74.1000 TC 30 5 331
1932288N11074 1932 64 NI AS NOT_NAMED 1932-10-14 03:00:00 TS 11.1317 73.9634 main 165 161 _________PO___ -1 11.2475 73.8951 TC 30 10.9000 74.1000 1 6 331
1932288N11074 1932 64 NI AS NOT_NAMED 1932-10-14 06:00:00 TS 11.4638 73.7882 main 161 161 _________OP___ -1 11.6000 73.7000 TC 30 11.2594 73.9204 1 8 333
1932288N11074 1932 64 NI AS NOT_NAMED 1932-10-14 09:00:00 TS 11.8107 73.6082 main 166 161 _________PP___ -1 11.9574 73.5149 TC 30 11.6150 73.7326 1 8 331
1932288N11074 1932 64 NI AS NOT_NAMED 1932-10-14 12:00:00 TS 12.1315 73.4142 main 171 166 _________OP___ -1 12.3000 73.3000 TC 30 11.9631 73.5284 1 8 325
1932288N11074 1932 64 NI AS NOT_NAMED 1932-10-14 15:00:00 TS 12.4613 73.1463 main 187 185 _________PO___ -1 12.6226 72.9926 TC 30 12.3000 73.3000 1 8 320
1932288N11074 1932 64 NI AS NOT_NAMED 1932-10-14 18:00:00 TS 12.7597 72.8729 main 202 202 _________OP___ -1 12.9000 72.7000 TC 30 12.6195 73.0458 1 7 319
1932288N11074 1932 64 NI AS NOT_NAMED 1932-10-14 21:00:00 TS 13.0251 72.6476 main 229 228 _________PP___ -1 13.1450 72.5049 TC 30 12.9052 72.7903 1 6 320
1932288N11074 1932 64 NI AS NOT_NAMED 1932-10-15 00:00:00 TS 13.2191 72.4823 main 238 238 _________OP___ -1 13.3000 72.4000 TC 30 13.1382 72.5646 1 4 319
1932288N11074 1932 64 NI AS NOT_NAMED 1932-10-15 03:00:00 TS 13.3150 72.3887 main 243 243 _________PO___ -1 13.3300 72.3775 TC 30 13.3000 72.4000 1 2 316
1932288N11074 1932 64 NI AS NOT_NAMED 1932-10-15 06:00:00 TS 13.3359 72.3675 main 243 243 _________OP___ -1 13.3000 72.4000 TC 30 13.3717 72.3350 1 0 0
1932288N11074 1932 64 NI AS NOT_NAMED 1932-10-15 09:00:00 TS 13.3374 72.3661 main 243 243 _________PP___ -1 13.3000 72.4000 TC 30 13.3749 72.3322 1 0 0
1932288N11074 1932 64 NI AS NOT_NAMED 1932-10-15 12:00:00 TS 13.3203 72.3816 main 243 243 _________OP___ -1 13.3000 72.4000 TC 30 13.3406 72.3633 1 1 132
1932288N11074 1932 64 NI AS NOT_NAMED 1932-10-15 15:00:00 TS 13.3000 72.4000 main 243 243 _________PO___ -1 13.3000 72.4000 TC 30 13.3000 72.4000 1 1 137
1932288N11074 1932 64 NI AS NOT_NAMED 1932-10-15 18:00:00 TS 13.2796 72.4243 main 243 233 _________OP___ -1 13.3000 72.4000 TC 30 13.2593 72.4485 1 1 132
1932288N11074 1932 64 NI AS NOT_NAMED 1932-10-15 21:00:00 TS 13.2474 72.4635 main 238 233 _________PP___ -1 13.2700 72.4374 TC 30 13.2248 72.4896 1 0 0
1932288N11074 1932 64 NI AS NOT_NAMED 1932-10-16 00:00:00 TS 13.2640 72.4429 main 243 243 _________OP___ -1 13.3000 72.4000 TC 30 13.2279 72.4859 1 2 309
1932288N11074 1932 64 NI AS NOT_NAMED 1932-10-16 03:00:00 TS 13.3775 72.3012 main 248 248 _________PO___ -1 13.4550 72.2025 TC 30 13.3000 72.4000 1 5 312
1932288N11074 1932 64 NI AS NOT_NAMED 1932-10-16 06:00:00 TS 13.6011 72.0636 main 254 254 _________OP___ -1 13.7000 71.9000 TC 30 13.5023 72.2272 1 7 315
1932288N11074 1932 64 NI AS NOT_NAMED 1932-10-16 09:00:00 TS 13.8885 71.7765 main 263 263 _________PP___ -1 14.0074 71.5876 TC 30 13.7696 71.9654 1 9 312
1932288N11074 1932 64 NI AS NOT_NAMED 1932-10-16 12:00:00 TS 14.1760 71.4105 main 287 287 _________OP___ -1 14.3000 71.2000 TC 30 14.0521 71.6209 1 9 303
1932288N11074 1932 64 NI AS NOT_NAMED 1932-10-16 15:00:00 TS 14.3937 70.9687 main 319 319 _________PO___ -1 14.4874 70.7374 TC 30 14.3000 71.2000 1 10 290
1932288N11074 1932 64 NI AS NOT_NAMED 1932-10-16 18:00:00 TS 14.5282 70.4346 main 375 375 _________OP___ -1 14.6000 70.2000 TC 30 14.4563 70.6691 1 11 281
1932288N11074 1932 64 NI AS NOT_NAMED 1932-10-16 21:00:00 TS 14.6171 69.8162 main 430 430 _________PP___ -1 14.6653 69.5549 TC 30 14.5690 70.0775 1 12 277
1932288N11074 1932 64 NI AS NOT_NAMED 1932-10-17 00:00:00 TS 14.6735 69.2486 main 483 483 _________OP___ -1 14.7000 69.0000 TC 30 14.6470 69.4972 1 9 277
1932288N11074 1932 64 NI AS NOT_NAMED 1932-10-17 03:00:00 TS 14.7286 68.8737 main 512 512 _________PO___ -1 14.7572 68.7475 TC 30 14.7000 69.0000 1 6 280
1932288N11074 1932 64 NI AS NOT_NAMED 1932-10-17 06:00:00 TS 14.7749 68.6427 main 538 538 _________OP___ -1 14.8000 68.6000 TC 30 14.7498 68.6854 1 5 278
1932288N11074 1932 64 NI AS NOT_NAMED 1932-10-17 09:00:00 TS 14.7933 68.4086 main 558 558 _________PP___ -1 14.8075 68.3575 TC 30 14.7790 68.4597 1 4 273
1932288N11074 1932 64 NI AS NOT_NAMED 1932-10-17 12:00:00 TS 14.7969 68.1896 main 578 578 _________OP___ -1 14.8000 68.1000 TC 30 14.7938 68.2792 1 4 271
1932288N11074 1932 64 NI AS NOT_NAMED 1932-10-17 15:00:00 TS 14.8000 67.9750 main 598 598 _________PO___ -1 14.8000 67.8500 TC 30 14.8000 68.1000 1 4 271
1932288N11074 1932 64 NI AS NOT_NAMED 1932-10-17 18:00:00 TS 14.8034 67.7489 main 629 629 _________OP___ -1 14.8000 67.6000 TC 30 14.8067 67.8977 1 4 270
1932288N11074 1932 64 NI AS NOT_NAMED 1932-10-17 21:00:00 TS 14.8032 67.5424 main 649 649 _________PP___ -1 14.7997 67.4025 TC 30 14.8068 67.6824 1 5 270
1932288N11074 1932 64 NI AS NOT_NAMED 1932-10-18 00:00:00 TS 14.8017 67.2629 main 670 670 _________OP___ -1 14.8000 67.1000 TC 30 14.8035 67.4259 1 7 270
1932288N11074 1932 64 NI AS NOT_NAMED 1932-10-18 03:00:00 TS 14.8002 66.8112 main 721 721 _________PO___ -1 14.8004 66.5225 TC 30 14.8000 67.1000 1 9 270
1932288N11074 1932 64 NI AS NOT_NAMED 1932-10-18 06:00:00 TS 14.7981 66.2879 main 773 773 _________OP___ -1 14.8000 65.9000 TC 30 14.7962 66.6758 1 9 270
1932288N11074 1932 64 NI AS NOT_NAMED 1932-10-18 09:00:00 TS 14.7962 65.8337 main 825 825 _________PP___ -1 14.7997 65.4850 TC 30 14.7928 66.1823 1 9 270
1932288N11074 1932 64 NI AS NOT_NAMED 1932-10-18 12:00:00 TS 14.7965 65.3738 main 867 867 _________OP___ -1 14.8000 65.1000 TC 30 14.7929 65.6477 1 9 270
1932288N11074 1932 64 NI AS NOT_NAMED 1932-10-18 15:00:00 TS 14.7962 64.8612 main 889 836 _________PO___ -1 14.7924 64.6224 TC 30 14.8000 65.1000 1 10 271
1932288N11074 1932 64 NI AS NOT_NAMED 1932-10-18 18:00:00 TS 14.8113 64.2986 main 836 784 _________OP___ -1 14.8000 64.1000 TC 30 14.8226 64.4971 1 11 273
1932288N11074 1932 64 NI AS NOT_NAMED 1932-10-18 21:00:00 TS 14.8507 63.6877 main 777 735 _________PP___ -1 14.8503 63.4751 TC 30 14.8510 63.9003 1 11 274
1932288N11074 1932 64 NI AS NOT_NAMED 1932-10-19 00:00:00 TS 14.8894 63.1891 main 735 718 _________OP___ -1 14.9000 63.0000 TC 30 14.8788 63.3783 1 7 274
1932288N11074 1932 64 NI AS NOT_NAMED 1932-10-19 03:00:00 TS 14.9036 62.9587 main 718 710 _________PO___ -1 14.9073 62.9175 TC 30 14.9000 63.0000 1 3 273
1932288N11074 1932 64 NI AS NOT_NAMED 1932-10-19 06:00:00 TS 14.9032 62.9245 main 710 710 _________OP___ -1 14.9000 63.0000 TC 30 14.9065 62.8490 1 0 270
1932288N11074 1932 64 NI AS NOT_NAMED 1932-10-19 09:00:00 TS 14.9034 62.9212 main 710 710 _________PP___ -1 14.9000 63.0000 TC 30 14.9067 62.8425 1 0 92
1932288N11074 1932 64 NI AS NOT_NAMED 1932-10-19 12:00:00 TS 14.9018 62.9573 main 718 718 _________OP___ -1 14.9000 63.0000 TC 30 14.9037 62.9147 1 1 92
1932288N11074 1932 64 NI AS NOT_NAMED 1932-10-19 15:00:00 TS 14.9000 63.0000 main 718 718 _________PO___ -1 14.9000 63.0000 TC 30 14.9000 63.0000 1 1 96
1932288N11074 1932 64 NI AS NOT_NAMED 1932-10-19 18:00:00 TS 14.8959 63.0101 main 718 718 _________OP___ -1 14.9000 63.0000 TC 30 14.8919 63.0203 1 0 0
1932288N11074 1932 64 NI AS NOT_NAMED 1932-10-19 21:00:00 TS 14.8887 63.0262 main 718 718 _________PP___ -1 14.8925 63.0150 TC 30 14.8850 63.0375 1 0 0
1932288N11074 1932 64 NI AS NOT_NAMED 1932-10-20 00:00:00 TS 14.8928 63.0180 main 718 718 _________OP___ -1 14.9000 63.0000 TC 30 14.8856 63.0359 1 1 294
1932288N11074 1932 64 NI AS NOT_NAMED 1932-10-20 03:00:00 TS 14.9212 62.9613 main 718 703 _________PO___ -1 14.9425 62.9225 TC 31 14.9000 63.0000 1 2 296
1932288N11074 1932 64 NI AS NOT_NAMED 1932-10-20 06:00:00 TS 14.9678 62.8575 main 703 686 _________OP___ -1 15.0000 62.8000 TC 32 14.9356 62.9150 1 2 293
1932288N11074 1932 64 NI AS NOT_NAMED 1932-10-20 09:00:00 TS 15.0175 62.7263 main 686 671 _________PP___ -1 15.0500 62.6575 TC 33 14.9850 62.7950 1 3 291
1932288N11074 1932 64 NI AS NOT_NAMED 1932-10-20 12:00:00 TS 15.0709 62.5763 main 671 655 _________OP___ -1 15.1000 62.5000 TC 34 15.0419 62.6525 1 3 290
1932288N11074 1932 64 NI AS NOT_NAMED 1932-10-20 15:00:00 TS 15.1250 62.4250 main 655 639 _________PO___ -1 15.1500 62.3500 TC 36 15.1000 62.5000 2 3 289
1932288N11074 1932 64 NI AS NOT_NAMED 1932-10-20 18:00:00 TS 15.1730 62.2705 main 639 624 _________OP___ -1 15.2000 62.2000 TC 39 15.1460 62.3409 2 3 287
1932288N11074 1932 64 NI AS NOT_NAMED 1932-10-20 21:00:00 TS 15.2213 62.1063 main 624 608 _________PP___ -1 15.2500 62.0350 TC 42 15.1926 62.1775 2 3 288
1932288N11074 1932 64 NI AS NOT_NAMED 1932-10-21 00:00:00 TS 15.2714 61.9627 main 608 601 _________OP___ -1 15.3000 61.9000 TC 45 15.2429 62.0253 2 3 294
1932288N11074 1932 64 NI AS NOT_NAMED 1932-10-21 03:00:00 TS 15.3212 61.8675 main 601 585 _________PO___ -1 15.3425 61.8350 TC 45 15.3000 61.9000 3 2 308
1932288N11074 1932 64 NI AS NOT_NAMED 1932-10-21 06:00:00 TS 15.3839 61.8126 main 585 577 _________OP___ -1 15.4000 61.8000 TC 45 15.3677 61.8253 3 2 326
1932288N11074 1932 64 NI AS NOT_NAMED 1932-10-21 09:00:00 TS 15.4675 61.7637 main 577 562 _________PP___ -1 15.4925 61.7500 TC 45 15.4424 61.7774 3 2 333
1932288N11074 1932 64 NI AS NOT_NAMED 1932-10-21 12:00:00 TS 15.5604 61.7204 main 562 562 _________OP___ -1 15.6000 61.7000 TC 45 15.5209 61.7409 3 2 337
1932288N11074 1932 64 NI AS NOT_NAMED 1932-10-21 15:00:00 TS 15.6537 61.6787 main 554 546 _________PO___ -1 15.7075 61.6575 TC 41 15.6000 61.7000 3 2 333
1932288N11074 1932 64 NI AS NOT_NAMED 1932-10-21 18:00:00 TS 15.7298 61.6243 main 546 539 _________OP___ -1 15.8000 61.6000 TC 37 15.6772 61.6426 3 2 318
1932288N11074 1932 64 NI AS NOT_NAMED 1932-10-21 21:00:00 TS 15.7955 61.5461 main 531 531 _________PP___ -1 15.8600 61.5100 TC 33 15.7526 61.5701 3 2 308
1932288N11074 1932 64 NI AS NOT_NAMED 1932-10-22 00:00:00 TS 15.8511 61.4584 main 523 515 _________OP___ -1 15.9000 61.4000 TC 30 15.8266 61.4876 3 2 306
1932288N11074 1932 64 NI AS NOT_NAMED 1932-10-22 03:00:00 NR 15.9000 61.4000 main 515 __________O___ -1 TC 15.9000 61.4000 1 1 308

IBTrACS Databaseについて

本データベースは、米国NOAAが公開する1842年以降の世界の熱帯低気圧のベストトラックデータアーカイブInternational Best Track Archive for Climate Stewardship (IBTrACS)を、ウェブで閲覧しやすい形式に変換したものです。

最終更新日:2021-11-26